Time;durP1;ratioP1;P1;durP2;ratioP2;P2;SDS_P1;SDS_P2;PMS_P1;PMS_P2;Temp;Humidity;BMP_temperature;BMP_pressure;BME280_temperature;BME280_humidity;BME280_pressure;Samples;Min_cycle;Max_cycle;Signal;HPM_P1;HPM_P2
2021/12/15 00:01:49;;;;;;;;;47.50;36.75;;;;;11.45;100.00;102822.91;5081442;27;45352;-81
2021/12/15 00:04:15;;;;;;;;;40.50;33.75;;;;;11.48;100.00;102817.03;5063340;28;45489;-84
2021/12/15 00:06:41;;;;;;;;;45.50;35.75;;;;;11.51;100.00;102816.38;5080226;28;45442;-84
2021/12/15 00:09:10;;;;;;;;;40.50;35.00;;;;;11.53;100.00;102815.72;5079680;28;46422;-83
2021/12/15 00:11:37;;;;;;;;;42.00;35.25;;;;;11.53;100.00;102812.19;5079766;27;45287;-82
2021/12/15 00:14:09;;;;;;;;;37.00;32.75;;;;;11.50;100.00;102812.00;5079949;28;45241;-81
2021/12/15 00:16:35;;;;;;;;;36.50;32.00;;;;;11.50;100.00;102806.81;5079707;27;45985;-81
2021/12/15 00:19:02;;;;;;;;;40.50;35.25;;;;;11.49;100.00;102812.78;5078946;27;45774;-81
2021/12/15 00:21:28;;;;;;;;;41.25;34.75;;;;;11.49;100.00;102812.78;5079696;28;45277;-83
2021/12/15 00:23:53;;;;;;;;;42.25;35.75;;;;;11.49;100.00;102810.19;5079965;28;45256;-84
2021/12/15 00:26:19;;;;;;;;;42.25;35.75;;;;;11.49;100.00;102811.06;5079777;28;45541;-83
2021/12/15 00:28:46;;;;;;;;;39.25;35.00;;;;;11.52;100.00;102807.78;5079289;28;45354;-85
2021/12/15 00:31:13;;;;;;;;;38.25;32.50;;;;;11.50;100.00;102805.09;5059581;28;45373;-82
2021/12/15 00:33:41;;;;;;;;;37.50;34.25;;;;;11.50;100.00;102807.69;5059417;28;45333;-81
2021/12/15 00:36:07;;;;;;;;;39.00;30.25;;;;;11.49;100.00;102800.69;5040828;28;47710;-80
2021/12/15 00:38:34;;;;;;;;;36.75;32.25;;;;;11.50;100.00;102806.81;5059161;28;45275;-81
2021/12/15 00:41:00;;;;;;;;;40.25;35.50;;;;;11.48;100.00;102796.28;5077605;28;45534;-80
2021/12/15 00:43:27;;;;;;;;;33.75;31.75;;;;;11.46;100.00;102803.97;5079968;27;45447;-80
2021/12/15 00:45:53;;;;;;;;;41.25;34.25;;;;;11.48;100.00;102801.50;5079336;28;46319;-80
2021/12/15 00:48:19;;;;;;;;;35.00;31.25;;;;;11.49;100.00;102798.09;5079312;27;45379;-80
2021/12/15 00:50:46;;;;;;;;;38.75;30.25;;;;;11.50;100.00;102799.91;5078890;27;45508;-80
2021/12/15 00:53:13;;;;;;;;;33.50;26.50;;;;;11.50;100.00;102807.69;5079519;28;45545;-79
2021/12/15 00:55:42;;;;;;;;;38.75;32.00;;;;;11.51;100.00;102795.59;5079330;28;45319;-82
2021/12/15 00:58:08;;;;;;;;;34.00;30.00;;;;;11.52;100.00;102805.19;5079681;28;45882;-82
2021/12/15 01:00:42;;;;;;;;;25.50;25.50;;;;;11.49;100.00;102795.50;5078731;27;45389;-81
2021/12/15 01:03:09;;;;;;;;;34.50;29.50;;;;;11.46;100.00;102801.38;5040850;28;45481;-81
2021/12/15 01:05:41;;;;;;;;;45.50;34.00;;;;;11.45;100.00;102801.25;5058536;28;46335;-81
2021/12/15 01:08:10;;;;;;;;;34.00;30.00;;;;;11.45;100.00;102802.16;5067308;28;45347;-81
2021/12/15 01:10:58;;;;;;;;;34.50;27.75;;;;;11.45;100.00;102798.66;5078408;28;45223;-82
2021/12/15 01:21:39;;;;;;;;;39.25;32.25;;;;;11.49;100.00;102799.81;5058598;28;45228;-81
2021/12/15 01:24:05;;;;;;;;;47.00;34.00;;;;;11.45;100.00;102796.97;5058859;28;45245;-80
2021/12/15 01:26:31;;;;;;;;;37.50;34.75;;;;;11.46;100.00;102805.66;5058352;28;46585;-81
2021/12/15 01:28:57;;;;;;;;;39.75;32.00;;;;;11.48;100.00;102800.59;5044541;28;45544;-81
2021/12/15 01:31:23;;;;;;;;;35.75;30.50;;;;;11.46;100.00;102797.88;5079179;28;45402;-84
2021/12/15 01:33:48;;;;;;;;;34.75;29.75;;;;;11.46;100.00;102795.28;5078941;27;45347;-85
2021/12/15 01:36:14;;;;;;;;;35.75;32.00;;;;;11.48;100.00;102793.69;5078498;28;45855;-85
2021/12/15 01:38:43;;;;;;;;;45.75;36.00;;;;;11.46;100.00;102795.28;5078152;28;45231;-84
2021/12/15 01:41:19;;;;;;;;;42.75;33.25;;;;;11.43;100.00;102795.06;5078246;28;45486;-83
2021/12/15 01:47:01;;;;;;;;;42.50;32.75;;;;;11.43;100.00;102798.56;5058464;28;45479;-84
2021/12/15 01:49:38;;;;;;;;;36.25;33.00;;;;;11.45;100.00;102802.16;5077933;28;45455;-81
2021/12/15 01:52:17;;;;;;;;;37.25;29.25;;;;;11.46;100.00;102797.88;5078412;27;45342;-81
2021/12/15 01:54:49;;;;;;;;;33.25;30.00;;;;;11.46;100.00;102806.56;5060497;28;45531;-80
2021/12/15 01:57:16;;;;;;;;;39.75;31.25;;;;;11.46;100.00;102808.25;5078107;28;46032;-81
2021/12/15 01:59:46;;;;;;;;;36.75;34.25;;;;;11.45;100.00;102806.44;5078607;28;45447;-80
2021/12/15 02:02:13;;;;;;;;;43.50;32.25;;;;;11.46;100.00;102808.25;5077981;28;45422;-83
2021/12/15 02:04:39;;;;;;;;;36.25;32.75;;;;;11.44;100.00;102802.97;5079447;28;45520;-79
2021/12/15 02:07:07;;;;;;;;;26.25;24.00;;;;;11.48;100.00;102821.34;5079008;28;45424;-80
2021/12/15 02:12:05;;;;;;;;;37.00;32.00;;;;;11.45;100.00;102819.41;5077218;28;45479;-80
2021/12/15 02:14:33;;;;;;;;;28.75;23.75;;;;;11.45;100.00;102822.91;5078251;27;45526;-80
2021/12/15 02:16:59;;;;;;;;;29.00;27.50;;;;;11.48;100.00;102823.94;5077908;27;45428;-81
2021/12/15 02:19:25;;;;;;;;;35.25;32.25;;;;;11.48;100.00;102824.84;5075304;28;45943;-82
2021/12/15 02:21:50;;;;;;;;;36.50;30.50;;;;;11.48;100.00;102823.94;5058809;28;45436;-81
2021/12/15 02:24:16;;;;;;;;;33.50;30.00;;;;;11.50;100.00;102833.63;5078600;27;45319;-81
2021/12/15 02:26:48;;;;;;;;;39.50;30.75;;;;;11.52;100.00;102825.94;5078195;28;45405;-80
2021/12/15 02:29:18;;;;;;;;;39.00;31.50;;;;;11.52;100.00;102829.47;5078419;28;45240;-83
2021/12/15 02:34:32;;;;;;;;;40.00;33.00;;;;;11.52;100.00;102825.94;5077094;27;45442;-79
2021/12/15 02:37:16;;;;;;;;;36.25;32.25;;;;;11.53;100.00;102827.75;5077035;28;46584;-79
2021/12/15 02:39:51;;;;;;;;;32.00;31.50;;;;;11.53;100.00;102822.56;5078429;28;45929;-81
2021/12/15 02:42:18;;;;;;;;;34.25;30.25;;;;;11.53;100.00;102823.50;5078800;27;45357;-83
2021/12/15 02:44:45;;;;;;;;;27.25;25.50;;;;;11.56;100.00;102822.81;5077633;28;45555;-83
2021/12/15 02:47:22;;;;;;;;;29.50;27.25;;;;;11.56;100.00;102826.28;5076622;28;46163;-84
2021/12/15 02:49:52;;;;;;;;;36.25;32.25;;;;;11.56;100.00;102821.09;5077454;28;45398;-84
2021/12/15 02:52:18;;;;;;;;;33.75;31.75;;;;;11.57;100.00;102820.31;5077104;28;45414;-85
2021/12/15 02:54:44;;;;;;;;;42.25;31.75;;;;;11.57;100.00;102819.44;5078562;28;45275;-83
2021/12/15 02:57:12;;;;;;;;;40.50;32.00;;;;;11.58;100.00;102814.34;5060328;28;47658;-86
2021/12/15 03:00:01;;;;;;;;;29.25;26.25;;;;;11.62;100.00;102815.47;5078379;27;45318;-83
2021/12/15 03:03:12;;;;;;;;;32.50;28.25;;;;;11.59;100.00;102817.84;5075336;28;45592;-85
2021/12/15 03:05:43;;;;;;;;;32.50;32.00;;;;;11.59;100.00;102815.25;5076434;27;45694;-84
2021/12/15 03:08:17;;;;;;;;;38.50;31.50;;;;;11.59;100.00;102810.06;5075781;28;45576;-83
2021/12/15 03:16:17;;;;;;;;;30.00;27.00;;;;;11.57;100.00;102814.25;5076973;28;45438;-81
2021/12/15 03:18:44;;;;;;;;;29.50;27.00;;;;;11.56;100.00;102815.91;5076385;28;45966;-83
2021/12/15 03:21:25;;;;;;;;;31.50;28.75;;;;;11.57;100.00;102814.25;5076961;28;45377;-83
2021/12/15 03:24:02;;;;;;;;;33.50;28.50;;;;;11.57;100.00;102812.53;5076916;28;45406;-82
2021/12/15 03:26:39;;;;;;;;;30.50;27.50;;;;;11.56;100.00;102818.50;5059446;28;45325;-85
2021/12/15 03:37:09;;;;;;;;;30.00;24.50;;;;;11.55;100.00;102821.91;5076290;27;45268;-85
2021/12/15 03:39:44;;;;;;;;;33.25;29.50;;;;;11.54;100.00;102821.78;5055376;28;45325;-85
2021/12/15 03:42:12;;;;;;;;;31.75;28.00;;;;;11.55;100.00;102832.28;5061447;28;45331;-84
2021/12/15 03:44:41;;;;;;;;;15.75;14.25;;;;;11.55;100.00;102831.38;5077028;28;45243;-84
2021/12/15 03:47:12;;;;;;;;;37.75;30.25;;;;;11.56;100.00;102831.47;5077006;28;45544;-85
2021/12/15 03:49:38;;;;;;;;;37.75;30.50;;;;;11.56;100.00;102828.88;5076510;27;45401;-86
2021/12/15 03:52:05;;;;;;;;;30.00;27.25;;;;;11.57;100.00;102829.81;5076338;28;45886;-85
2021/12/15 03:54:31;;;;;;;;;33.25;28.50;;;;;11.58;100.00;102829.91;5059956;28;45448;-84
2021/12/15 03:56:57;;;;;;;;;30.75;29.50;;;;;11.58;100.00;102826.41;5077247;28;45551;-82
2021/12/15 03:59:24;;;;;;;;;36.25;30.75;;;;;11.58;100.00;102829.00;5076425;27;45560;-81
2021/12/15 04:01:52;;;;;;;;;33.25;28.00;;;;;11.58;100.00;102826.41;5075594;28;45251;-82
2021/12/15 04:04:17;;;;;;;;;37.00;31.00;;;;;11.57;100.00;102825.50;5076413;28;45918;-81
2021/12/15 04:06:43;;;;;;;;;30.75;29.50;;;;;11.55;100.00;102823.59;5076671;27;45462;-82
2021/12/15 04:09:12;;;;;;;;;29.00;28.50;;;;;11.57;100.00;102828.09;5058141;28;46291;-82
2021/12/15 04:11:39;;;;;;;;;29.00;26.00;;;;;11.57;100.00;102819.44;5076100;28;45488;-83
2021/12/15 04:14:10;;;;;;;;;24.25;21.25;;;;;11.57;100.00;102820.31;5076154;28;45464;-81
2021/12/15 04:16:43;;;;;;;;;32.75;32.00;;;;;11.58;100.00;102823.81;5076482;28;45424;-81
2021/12/15 04:19:15;;;;;;;;;32.50;28.75;;;;;11.58;100.00;102824.72;5075894;28;46331;-81
2021/12/15 04:21:41;;;;;;;;;36.75;28.25;;;;;11.59;100.00;102826.53;5076342;27;45230;-79
2021/12/15 04:24:06;;;;;;;;;35.00;30.50;;;;;11.60;100.00;102817.94;5077943;27;45263;-83
2021/12/15 04:26:32;;;;;;;;;29.75;26.50;;;;;11.63;100.00;102822.44;5079946;28;45572;-84
2021/12/15 04:28:58;;;;;;;;;30.25;28.00;;;;;11.63;100.00;102819.84;5075696;28;45487;-83
2021/12/15 04:31:27;;;;;;;;;32.75;28.50;;;;;11.65;100.00;102827.78;5077819;28;45359;-83
2021/12/15 04:34:11;;;;;;;;;32.00;27.25;;;;;11.63;100.00;102827.66;5079053;28;45382;-84
2021/12/15 04:36:41;;;;;;;;;28.50;24.25;;;;;11.61;100.00;102819.75;5080027;28;45312;-84
2021/12/15 04:39:09;;;;;;;;;27.00;21.50;;;;;11.62;100.00;102825.84;5079311;28;45233;-84
2021/12/15 04:41:35;;;;;;;;;23.00;19.50;;;;;11.61;100.00;102834.41;5079509;27;45526;-85
2021/12/15 04:44:09;;;;;;;;;27.00;22.75;;;;;11.61;100.00;102830.13;5079045;28;45895;-85
2021/12/15 04:46:37;;;;;;;;;27.00;23.25;;;;;11.61;100.00;102834.41;5080030;27;46123;-80
2021/12/15 04:49:06;;;;;;;;;26.00;20.50;;;;;11.60;100.00;102828.31;5079618;28;45519;-83
2021/12/15 04:51:32;;;;;;;;;27.50;25.50;;;;;11.61;100.00;102840.50;5079563;28;45793;-84
2021/12/15 04:53:58;;;;;;;;;26.75;24.50;;;;;11.59;100.00;102836.91;5079633;27;45232;-83
2021/12/15 04:56:25;;;;;;;;;27.00;21.25;;;;;11.61;100.00;102839.59;5079641;28;45218;-84
2021/12/15 04:58:53;;;;;;;;;25.00;19.75;;;;;11.59;100.00;102841.19;5079235;27;45389;-85
2021/12/15 05:01:19;;;;;;;;;30.75;23.50;;;;;11.58;100.00;102832.50;5061049;28;45372;-84
2021/12/15 05:03:45;;;;;;;;;24.75;21.75;;;;;11.60;100.00;102836.13;5078813;27;45382;-83
2021/12/15 05:06:11;;;;;;;;;28.25;23.00;;;;;11.61;100.00;102842.19;5079336;27;45308;-83
2021/12/15 05:08:39;;;;;;;;;27.50;22.00;;;;;11.62;100.00;102838.81;5079036;27;46215;-85
2021/12/15 05:11:05;;;;;;;;;25.25;22.50;;;;;11.63;100.00;102843.22;5079687;27;45289;-84
2021/12/15 05:13:32;;;;;;;;;23.00;21.50;;;;;11.65;100.00;102846.81;5082108;27;45516;-82
2021/12/15 05:15:59;;;;;;;;;23.00;23.00;;;;;11.67;100.00;102852.13;5079725;27;45463;-83
2021/12/15 05:18:26;;;;;;;;;21.50;20.50;;;;;11.68;100.00;102851.31;5078449;28;45352;-84
2021/12/15 05:20:53;;;;;;;;;31.25;24.75;;;;;11.68;100.00;102849.66;5078895;28;45285;-84
2021/12/15 05:23:20;;;;;;;;;26.00;22.50;;;;;11.67;100.00;102853.03;5078005;27;45260;-84
2021/12/15 05:25:48;;;;;;;;;36.00;32.50;;;;;11.68;100.00;102854.84;5079037;28;45395;-83
2021/12/15 05:28:14;;;;;;;;;30.75;28.75;;;;;11.68;100.00;102859.13;5078457;27;45355;-81
2021/12/15 05:30:41;;;;;;;;;35.50;31.75;;;;;11.67;100.00;102862.50;5078618;27;45410;-81
2021/12/15 05:33:07;;;;;;;;;37.50;32.25;;;;;11.69;100.00;102866.09;5077955;27;45356;-80
2021/12/15 05:35:34;;;;;;;;;30.75;27.50;;;;;11.68;100.00;102862.63;5079113;28;45561;-81
2021/12/15 05:38:01;;;;;;;;;35.25;31.25;;;;;11.67;100.00;102859.91;5078347;28;45365;-81
2021/12/15 05:40:28;;;;;;;;;33.25;29.50;;;;;11.67;100.00;102863.41;5078428;28;45883;-80
2021/12/15 05:42:58;;;;;;;;;37.25;31.00;;;;;11.68;100.00;102866.91;5077672;28;45396;-81
2021/12/15 05:45:30;;;;;;;;;25.75;25.25;;;;;11.70;100.00;102870.50;5078634;28;45529;-81
2021/12/15 05:47:58;;;;;;;;;32.75;27.25;;;;;11.70;100.00;102870.50;5077501;28;46101;-80
2021/12/15 05:50:26;;;;;;;;;30.25;26.50;;;;;11.69;100.00;102866.09;5077342;28;45911;-81
2021/12/15 05:52:52;;;;;;;;;37.00;31.50;;;;;11.71;100.00;102878.44;5078400;27;45350;-84
2021/12/15 05:55:18;;;;;;;;;36.00;32.25;;;;;11.71;100.00;102874.91;5078738;28;45401;-83
2021/12/15 05:57:45;;;;;;;;;36.75;32.50;;;;;11.71;100.00;102873.25;5059407;28;47943;-83
2021/12/15 06:00:17;;;;;;;;;38.00;33.00;;;;;11.70;100.00;102874.03;5078519;27;45742;-82
2021/12/15 06:02:44;;;;;;;;;43.50;34.00;;;;;11.66;100.00;102871.97;5056165;28;45379;-84
2021/12/15 06:05:11;;;;;;;;;32.50;29.00;;;;;11.64;100.00;102873.56;5079461;28;45464;-84
2021/12/15 06:07:38;;;;;;;;;34.75;29.75;;;;;11.62;100.00;102877.72;5080949;28;45394;-81
2021/12/15 06:10:07;;;;;;;;;37.00;31.25;;;;;11.64;100.00;102883.94;5083015;28;45165;-84
2021/12/15 06:12:33;;;;;;;;;51.25;40.25;;;;;11.64;100.00;102878.75;5084948;28;45338;-82
2021/12/15 06:14:58;;;;;;;;;35.50;29.25;;;;;11.66;100.00;102890.16;5087992;27;45283;-84
2021/12/15 06:17:26;;;;;;;;;43.50;32.00;;;;;11.68;100.00;102898.03;5078913;27;45647;-86
2021/12/15 06:19:53;;;;;;;;;41.75;32.00;;;;;11.68;100.00;102896.34;5078096;28;45235;-81
2021/12/15 06:22:24;;;;;;;;;42.00;34.25;;;;;11.70;100.00;102901.66;5077573;28;45432;-81
2021/12/15 06:24:51;;;;;;;;;35.00;30.00;;;;;11.70;100.00;102899.06;5059479;28;45453;-81
2021/12/15 06:27:19;;;;;;;;;34.25;31.25;;;;;11.70;100.00;102902.56;5077201;28;46222;-82
2021/12/15 06:29:46;;;;;;;;;33.50;30.75;;;;;11.71;100.00;102904.38;5077649;28;45848;-81
2021/12/15 06:32:12;;;;;;;;;40.25;32.00;;;;;11.71;100.00;102906.06;5077689;28;45366;-81
2021/12/15 06:34:38;;;;;;;;;36.25;30.00;;;;;11.70;100.00;102906.84;5078068;28;45424;-79
2021/12/15 06:37:04;;;;;;;;;36.25;32.00;;;;;11.68;100.00;102904.16;5077197;28;45952;-80
2021/12/15 06:39:30;;;;;;;;;42.50;33.00;;;;;11.66;100.00;102904.81;5077340;28;45359;-82
2021/12/15 06:41:57;;;;;;;;;41.25;34.00;;;;;11.67;100.00;102914.38;5079920;28;45612;-81
2021/12/15 06:44:22;;;;;;;;;40.50;33.00;;;;;11.67;100.00;102912.72;5077564;27;45639;-81
2021/12/15 07:00:42;;;;;;;;;39.50;34.00;;;;;11.72;100.00;102926.03;4994137;28;45498;-81
2021/12/15 07:03:08;;;;;;;;;48.25;37.00;;;;;11.72;100.00;102924.31;5048527;28;45505;-81
2021/12/15 07:05:34;;;;;;;;;45.00;35.75;;;;;11.72;100.00;102921.72;5075876;28;45290;-81
2021/12/15 07:08:03;;;;;;;;;37.00;34.50;;;;;11.73;100.00;102927.84;5075741;28;45347;-81
2021/12/15 07:10:33;;;;;;;;;39.50;34.50;;;;;11.72;100.00;102926.91;5055417;28;45811;-81
2021/12/15 07:13:00;;;;;;;;;39.50;32.75;;;;;11.72;100.00;102926.03;5057836;28;45496;-81
2021/12/15 07:15:28;;;;;;;;;35.50;32.75;;;;;11.71;100.00;102925.13;5075845;28;46514;-78
2021/12/15 07:18:01;;;;;;;;;37.25;30.50;;;;;11.71;100.00;102926.81;5076433;28;45436;-80
2021/12/15 07:20:37;;;;;;;;;33.75;27.25;;;;;11.72;100.00;102941.59;5076610;28;45407;-83
2021/12/15 07:23:06;;;;;;;;;37.50;32.00;;;;;11.75;100.00;102941.84;5076896;28;45334;-81
2021/12/15 07:25:35;;;;;;;;;31.75;29.75;;;;;11.77;100.00;102946.34;5076363;28;45475;-79
2021/12/15 07:28:00;;;;;;;;;37.75;32.00;;;;;11.79;100.00;102946.44;5084305;28;45409;-80
2021/12/15 07:30:27;;;;;;;;;31.25;28.50;;;;;11.79;100.00;102948.16;5082877;27;45418;-86
2021/12/15 07:32:54;;;;;;;;;36.00;25.75;;;;;11.77;100.00;102951.53;5078192;27;45491;-82
2021/12/15 07:35:21;;;;;;;;;24.25;21.75;;;;;11.80;100.00;102958.63;5076419;28;45874;-81
2021/12/15 07:37:47;;;;;;;;;30.25;27.25;;;;;11.77;100.00;102948.94;5076373;28;45917;-83
2021/12/15 07:40:20;;;;;;;;;29.75;29.50;;;;;11.81;100.00;102962.16;5078117;28;45405;-80
2021/12/15 07:42:58;;;;;;;;;30.00;23.50;;;;;11.84;100.00;102962.34;5075778;27;45457;-78
2021/12/15 07:45:26;;;;;;;;;22.50;22.00;;;;;11.83;100.00;102965.75;5076841;28;45437;-78
2021/12/15 07:47:57;;;;;;;;;26.25;23.75;;;;;11.81;100.00;102969.94;5076570;28;46008;-82
2021/12/15 07:50:24;;;;;;;;;26.25;24.25;;;;;11.80;100.00;102971.59;5077352;28;45311;-79
2021/12/15 07:52:51;;;;;;;;;19.50;18.25;;;;;11.81;100.00;102973.41;5076210;28;45398;-81
2021/12/15 07:55:18;;;;;;;;;16.75;16.75;;;;;11.82;100.00;102985.63;5068600;28;45244;-86
2021/12/15 07:57:44;;;;;;;;;22.00;18.25;;;;;11.83;100.00;102979.63;5075633;28;45446;-82
2021/12/15 08:00:11;;;;;;;;;19.25;18.25;;;;;11.82;100.00;102971.75;5076260;27;45867;-84
2021/12/15 08:02:37;;;;;;;;;26.00;22.00;;;;;11.84;100.00;102972.75;5076319;28;45800;-86
2021/12/15 08:05:04;;;;;;;;;26.00;21.25;;;;;11.84;100.00;102975.34;5078130;28;45668;-86
2021/12/15 08:07:30;;;;;;;;;28.50;27.75;;;;;11.83;100.00;102981.31;5085174;28;45350;-88
2021/12/15 08:09:55;;;;;;;;;22.25;20.75;;;;;11.85;100.00;102985.84;5085434;27;45488;-80
2021/12/15 08:12:21;;;;;;;;;28.00;21.25;;;;;11.82;100.00;102982.13;5079739;28;45521;-76
2021/12/15 08:14:47;;;;;;;;;22.00;21.25;;;;;11.85;100.00;102983.25;5079320;28;45488;-78
2021/12/15 08:17:13;;;;;;;;;25.25;21.25;;;;;11.85;100.00;102984.94;5079525;28;45318;-77
2021/12/15 08:19:39;;;;;;;;;26.00;20.00;;;;;11.84;100.00;102985.72;5063041;28;45556;-78
2021/12/15 08:22:08;;;;;;;;;19.50;18.00;;;;;11.86;100.00;102989.34;5079298;27;45453;-79
2021/12/15 08:24:34;;;;;;;;;22.75;22.00;;;;;11.85;100.00;102984.94;5060452;27;45269;-82
2021/12/15 08:27:00;;;;;;;;;20.50;19.25;;;;;11.84;100.00;102984.03;5079794;28;46090;-79
2021/12/15 08:29:26;;;;;;;;;25.25;19.75;;;;;11.85;100.00;102991.03;5078414;28;46065;-79
2021/12/15 08:31:52;;;;;;;;;15.25;14.75;;;;;11.86;100.00;102991.94;5079049;28;45500;-85
2021/12/15 08:34:18;;;;;;;;;24.25;22.75;;;;;11.89;100.00;102986.97;5062524;28;45468;-77
2021/12/15 08:36:46;;;;;;;;;26.25;18.50;;;;;11.89;100.00;102987.88;5079293;27;46050;-80
2021/12/15 08:39:12;;;;;;;;;25.50;23.50;;;;;11.91;100.00;102990.59;5078850;28;45730;-86
2021/12/15 08:41:38;;;;;;;;;25.50;24.50;;;;;11.90;100.00;102986.19;5063039;28;45545;-82
2021/12/15 08:44:06;;;;;;;;;36.50;29.00;;;;;11.93;100.00;102989.03;5079782;28;45382;-79
2021/12/15 08:46:39;;;;;;;;;28.75;24.50;;;;;11.94;100.00;102993.41;5078637;27;45982;-77
2021/12/15 08:49:07;;;;;;;;;30.00;24.25;;;;;11.95;100.00;102987.41;5078256;28;45402;-78
2021/12/15 08:51:34;;;;;;;;;36.75;30.25;;;;;11.96;100.00;102990.94;5060964;27;45541;-78
2021/12/15 08:54:04;;;;;;;;;29.75;25.00;;;;;11.97;100.00;102992.75;5079013;28;45614;-78
2021/12/15 08:56:30;;;;;;;;;24.75;23.75;;;;;11.97;100.00;102995.34;5078672;27;46250;-78
2021/12/15 08:58:56;;;;;;;;;31.25;26.25;;;;;11.97;100.00;103001.41;5060431;28;45417;-79
2021/12/15 09:01:23;;;;;;;;;32.00;29.00;;;;;11.99;100.00;102998.97;5078471;27;45306;-78
2021/12/15 09:03:49;;;;;;;;;28.25;27.50;;;;;11.98;100.00;102998.06;5060374;28;45354;-77
2021/12/15 09:06:16;;;;;;;;;33.75;29.75;;;;;12.01;100.00;102995.72;5078384;27;46200;-78
2021/12/15 09:08:43;;;;;;;;;31.75;29.75;;;;;12.02;100.00;103000.13;5078445;28;45510;-78
2021/12/15 09:11:11;;;;;;;;;29.00;24.50;;;;;12.04;100.00;103002.81;5078654;27;45395;-77
2021/12/15 09:13:38;;;;;;;;;23.50;22.50;;;;;12.05;100.00;102999.44;5078774;28;45577;-78
2021/12/15 09:16:10;;;;;;;;;23.75;23.75;;;;;12.05;100.00;102999.44;5077882;28;46228;-78
2021/12/15 09:18:38;;;;;;;;;29.50;23.75;;;;;12.07;100.00;103006.53;5078043;28;46079;-77
2021/12/15 09:21:05;;;;;;;;;24.25;20.25;;;;;12.11;100.00;103010.25;5078104;28;45496;-78
2021/12/15 09:23:31;;;;;;;;;18.00;17.00;;;;;12.13;100.00;103013.00;5077500;28;45482;-79
2021/12/15 09:25:58;;;;;;;;;18.25;18.25;;;;;12.14;100.00;103014.81;5059961;28;47105;-79
2021/12/15 09:28:25;;;;;;;;;19.25;18.00;;;;;12.16;100.00;103015.78;5078479;28;45347;-76
2021/12/15 09:30:52;;;;;;;;;21.00;17.00;;;;;12.19;100.00;103016.94;5059858;28;45398;-78
2021/12/15 09:33:22;;;;;;;;;22.00;19.25;;;;;12.20;100.00;103016.13;5059998;27;45552;-79
2021/12/15 09:35:48;;;;;;;;;19.00;16.25;;;;;12.20;100.00;103008.34;5076976;27;46168;-78
2021/12/15 09:38:17;;;;;;;;;21.00;17.00;;;;;12.21;100.00;103004.94;5077993;28;45858;-77
2021/12/15 09:40:43;;;;;;;;;24.25;19.25;;;;;12.24;100.00;103019.88;5078469;28;45441;-78
2021/12/15 09:43:10;;;;;;;;;24.00;22.00;;;;;12.27;100.00;103021.78;5060134;28;45453;-79
2021/12/15 10:04:38;;;;;;;;;22.00;19.00;;;;;12.34;100.00;103014.56;5078131;27;45436;-81
2021/12/15 10:17:59;;;;;;;;;21.25;18.00;;;;;12.43;100.00;103016.03;5077276;27;45837;-79
2021/12/15 10:20:26;;;;;;;;;22.75;17.50;;;;;12.41;100.00;103026.31;5077686;27;45862;-79
2021/12/15 10:23:01;;;;;;;;;20.25;19.25;;;;;12.38;100.00;103015.69;5078037;28;45403;-80
2021/12/15 10:25:57;;;;;;;;;19.75;15.75;;;;;12.35;100.00;103021.56;5077821;27;45513;-77
2021/12/15 10:28:31;;;;;;;;;19.75;17.75;;;;;12.34;100.00;103011.06;5071507;28;46063;-80
2021/12/15 10:31:12;;;;;;;;;18.25;16.00;;;;;12.34;100.00;103016.25;5076528;28;45434;-80
2021/12/15 10:33:41;;;;;;;;;17.25;14.00;;;;;12.33;100.00;103022.22;5077219;27;45526;-80
2021/12/15 10:36:11;;;;;;;;;20.75;15.25;;;;;12.32;100.00;103016.16;5077173;27;45498;-80
2021/12/15 10:38:45;;;;;;;;;17.25;14.25;;;;;12.29;100.00;103013.31;5077016;28;46606;-81
2021/12/15 10:41:33;;;;;;;;;20.50;18.25;;;;;12.29;100.00;103015.91;5077307;27;45432;-80
2021/12/15 10:44:06;;;;;;;;;21.75;19.75;;;;;12.28;100.00;103018.41;5058804;28;45318;-80
2021/12/15 10:46:38;;;;;;;;;16.00;14.00;;;;;12.29;100.00;103017.63;5077279;27;45375;-80
2021/12/15 10:49:07;;;;;;;;;16.25;15.50;;;;;12.29;100.00;103012.44;5076075;27;45469;-77
2021/12/15 10:51:39;;;;;;;;;16.25;14.75;;;;;12.32;100.00;103015.22;5076853;27;45446;-76
2021/12/15 10:54:08;;;;;;;;;18.75;16.25;;;;;12.31;100.00;103009.16;5076768;28;45527;-78
2021/12/15 10:56:36;;;;;;;;;13.00;12.25;;;;;12.31;100.00;103014.34;5075753;27;45507;-76
2021/12/15 10:59:09;;;;;;;;;22.50;17.75;;;;;12.31;100.00;103014.34;5075196;28;45386;-76
2021/12/15 11:01:57;;;;;;;;;20.25;17.25;;;;;12.33;100.00;103012.75;5075630;28;45402;-77
2021/12/15 11:04:41;;;;;;;;;19.50;16.75;;;;;12.36;100.00;103010.38;5060640;28;45474;-77
2021/12/15 11:07:12;;;;;;;;;16.25;14.00;;;;;12.37;100.00;103013.88;5088938;27;44844;-77
2021/12/15 11:10:07;;;;;;;;;15.00;12.25;;;;;12.40;100.00;103016.72;5082047;28;45542;-78
2021/12/15 11:12:40;;;;;;;;;15.50;14.50;;;;;12.37;100.00;103006.97;5072588;28;45869;-78
2021/12/15 11:15:26;;;;;;;;;18.00;13.75;;;;;12.37;100.00;103013.88;5056212;28;45434;-77
2021/12/15 11:17:57;;;;;;;;;19.75;18.50;;;;;12.37;100.00;103012.19;5074941;28;45383;-78
2021/12/15 11:20:30;;;;;;;;;17.25;13.25;;;;;12.37;100.00;103000.91;5076296;28;45726;-79
2021/12/15 11:23:00;;;;;;;;;18.25;14.00;;;;;12.35;100.00;103006.00;5058327;28;45910;-77
2021/12/15 11:25:49;;;;;;;;;13.00;12.25;;;;;12.34;100.00;103004.19;5076790;28;45428;-77
2021/12/15 11:28:16;;;;;;;;;11.25;11.25;;;;;12.36;100.00;103004.28;5079782;28;45298;-76
2021/12/15 11:30:57;;;;;;;;;17.25;13.50;;;;;12.37;100.00;103000.91;5079811;27;45438;-78
2021/12/15 11:33:27;;;;;;;;;20.25;18.75;;;;;12.36;100.00;102997.38;5057229;28;45794;-76
2021/12/15 11:36:07;;;;;;;;;16.25;15.25;;;;;12.36;100.00;102992.19;5079907;28;45376;-79
2021/12/15 11:38:36;;;;;;;;;19.75;15.50;;;;;12.36;100.00;102997.38;5069177;27;45460;-78
2021/12/15 11:41:18;;;;;;;;;23.75;18.50;;;;;12.39;100.00;102996.72;5077675;28;45412;-82
2021/12/15 11:43:59;;;;;;;;;14.75;13.75;;;;;12.36;100.00;102992.19;5077282;28;45859;-79
2021/12/15 11:46:34;;;;;;;;;30.00;26.00;;;;;12.38;100.00;102995.81;5080260;27;45515;-79
2021/12/15 11:49:06;;;;;;;;;22.25;20.00;;;;;12.41;100.00;102987.34;5079583;28;45383;-79
2021/12/15 11:51:42;;;;;;;;;16.00;15.25;;;;;12.46;100.00;102990.28;5078532;28;46350;-76
2021/12/15 11:54:23;;;;;;;;;16.25;16.25;;;;;12.49;100.00;102991.41;5061450;28;45805;-84
2021/12/15 11:56:55;;;;;;;;;18.50;17.75;;;;;12.49;100.00;102990.47;5081506;27;45287;-82
2021/12/15 11:59:33;;;;;;;;;27.50;22.25;;;;;12.46;100.00;102988.56;5082327;27;45526;-85
2021/12/15 12:02:28;;;;;;;;;19.25;16.00;;;;;12.49;100.00;102980.09;5081894;28;45399;-78
2021/12/15 12:05:23;;;;;;;;;14.25;10.50;;;;;12.51;100.00;102981.09;5084111;27;45360;-86
2021/12/15 12:07:59;;;;;;;;;11.75;11.00;;;;;12.52;100.00;102983.84;5073191;28;45556;-86
2021/12/15 12:10:34;;;;;;;;;11.75;10.50;;;;;12.56;100.00;102984.94;5069728;28;45519;-84
2021/12/15 12:13:09;;;;;;;;;16.75;12.00;;;;;12.59;100.00;102979.06;5080234;28;45319;-86
2021/12/15 12:15:38;;;;;;;;;11.50;10.25;;;;;12.62;100.00;102980.19;5081520;28;45268;-86
2021/12/15 12:18:08;;;;;;;;;14.75;10.75;;;;;12.65;100.00;102982.09;5064848;28;45306;-85
2021/12/15 12:20:53;;;;;;;;;12.50;9.75;;;;;12.68;100.00;102984.91;5064511;28;45540;-90
2021/12/15 12:23:23;;;;;;;;;11.25;11.25;;;;;12.70;100.00;102976.41;5062579;28;46848;-83
2021/12/15 12:25:57;;;;;;;;;11.00;10.75;;;;;12.72;100.00;102967.84;5081283;27;45339;-89
2021/12/15 12:28:30;;;;;;;;;15.25;10.50;;;;;12.71;100.00;102966.94;5067480;28;45525;-85